sensor_id;sensor_type;location;lat;lon;timestamp;temperature;humidity
52799;DHT22;38667;42.872;74.622;2023-09-19T00:00:45;15.10;66.00
52799;DHT22;38667;42.872;74.622;2023-09-19T00:03:13;15.10;66.60
52799;DHT22;38667;42.872;74.622;2023-09-19T00:05:40;15.10;65.60
52799;DHT22;38667;42.872;74.622;2023-09-19T00:08:06;15.10;66.40
52799;DHT22;38667;42.872;74.622;2023-09-19T00:10:33;15.20;67.10
52799;DHT22;38667;42.872;74.622;2023-09-19T00:13:00;15.20;67.40
52799;DHT22;38667;42.872;74.622;2023-09-19T00:15:27;15.20;66.00
52799;DHT22;38667;42.872;74.622;2023-09-19T00:17:54;15.10;66.90
52799;DHT22;38667;42.872;74.622;2023-09-19T00:20:21;15.10;66.80
52799;DHT22;38667;42.872;74.622;2023-09-19T00:22:48;15.00;67.10
52799;DHT22;38667;42.872;74.622;2023-09-19T00:25:14;14.90;66.00
52799;DHT22;38667;42.872;74.622;2023-09-19T00:27:41;14.90;66.80
52799;DHT22;38667;42.872;74.622;2023-09-19T00:30:09;14.90;67.80
52799;DHT22;38667;42.872;74.622;2023-09-19T00:32:35;15.00;68.70
52799;DHT22;38667;42.872;74.622;2023-09-19T00:35:01;15.00;68.20
52799;DHT22;38667;42.872;74.622;2023-09-19T00:37:29;15.00;67.60
52799;DHT22;38667;42.872;74.622;2023-09-19T00:39:55;14.90;67.00
52799;DHT22;38667;42.872;74.622;2023-09-19T00:42:22;14.80;68.40
52799;DHT22;38667;42.872;74.622;2023-09-19T00:44:48;14.80;68.40
52799;DHT22;38667;42.872;74.622;2023-09-19T00:47:14;14.90;67.10
52799;DHT22;38667;42.872;74.622;2023-09-19T00:49:41;14.90;67.50
52799;DHT22;38667;42.872;74.622;2023-09-19T00:52:07;14.90;67.80
52799;DHT22;38667;42.872;74.622;2023-09-19T00:54:36;15.00;67.50
52799;DHT22;38667;42.872;74.622;2023-09-19T00:57:02;15.00;66.90
52799;DHT22;38667;42.872;74.622;2023-09-19T00:59:29;15.00;65.50
52799;DHT22;38667;42.872;74.622;2023-09-19T01:01:56;15.00;66.60
52799;DHT22;38667;42.872;74.622;2023-09-19T01:04:23;15.10;67.20
52799;DHT22;38667;42.872;74.622;2023-09-19T01:06:49;15.10;66.30
52799;DHT22;38667;42.872;74.622;2023-09-19T01:09:16;15.20;67.00
52799;DHT22;38667;42.872;74.622;2023-09-19T01:11:47;15.10;65.50
52799;DHT22;38667;42.872;74.622;2023-09-19T01:14:23;15.10;66.70
52799;DHT22;38667;42.872;74.622;2023-09-19T01:17:00;15.10;67.80
52799;DHT22;38667;42.872;74.622;2023-09-19T01:20:00;15.30;66.70
52799;DHT22;38667;42.872;74.622;2023-09-19T01:22:37;15.40;66.80
52799;DHT22;38667;42.872;74.622;2023-09-19T01:25:30;15.40;65.50
52799;DHT22;38667;42.872;74.622;2023-09-19T01:28:20;15.50;65.70
52799;DHT22;38667;42.872;74.622;2023-09-19T01:30:51;15.50;66.00
52799;DHT22;38667;42.872;74.622;2023-09-19T01:33:19;15.50;66.00
52799;DHT22;38667;42.872;74.622;2023-09-19T01:35:46;15.40;66.40
52799;DHT22;38667;42.872;74.622;2023-09-19T01:38:12;15.50;64.00
52799;DHT22;38667;42.872;74.622;2023-09-19T01:40:41;15.50;57.80
52799;DHT22;38667;42.872;74.622;2023-09-19T01:43:11;15.70;56.80
52799;DHT22;38667;42.872;74.622;2023-09-19T01:45:47;15.90;57.00
52799;DHT22;38667;42.872;74.622;2023-09-19T01:48:23;16.00;55.80
52799;DHT22;38667;42.872;74.622;2023-09-19T01:50:56;16.10;55.70
52799;DHT22;38667;42.872;74.622;2023-09-19T01:53:26;16.10;54.80
52799;DHT22;38667;42.872;74.622;2023-09-19T01:55:53;16.20;55.10
52799;DHT22;38667;42.872;74.622;2023-09-19T01:58:23;16.30;55.00
52799;DHT22;38667;42.872;74.622;2023-09-19T02:00:53;16.30;55.00
52799;DHT22;38667;42.872;74.622;2023-09-19T02:03:22;16.40;54.20
52799;DHT22;38667;42.872;74.622;2023-09-19T02:05:50;16.50;53.80
52799;DHT22;38667;42.872;74.622;2023-09-19T02:08:17;16.60;52.70
52799;DHT22;38667;42.872;74.622;2023-09-19T02:10:44;16.70;52.80
52799;DHT22;38667;42.872;74.622;2023-09-19T02:13:11;16.90;53.30
52799;DHT22;38667;42.872;74.622;2023-09-19T02:15:37;16.80;52.20
52799;DHT22;38667;42.872;74.622;2023-09-19T02:18:04;16.90;52.30
52799;DHT22;38667;42.872;74.622;2023-09-19T02:20:32;16.90;52.30
52799;DHT22;38667;42.872;74.622;2023-09-19T02:22:58;17.00;52.60
52799;DHT22;38667;42.872;74.622;2023-09-19T02:25:24;17.00;52.50
52799;DHT22;38667;42.872;74.622;2023-09-19T02:27:51;17.10;52.20
52799;DHT22;38667;42.872;74.622;2023-09-19T02:30:17;17.10;51.90
52799;DHT22;38667;42.872;74.622;2023-09-19T02:32:43;17.20;52.10
52799;DHT22;38667;42.872;74.622;2023-09-19T02:35:10;17.20;51.90
52799;DHT22;38667;42.872;74.622;2023-09-19T02:37:38;17.30;51.70
52799;DHT22;38667;42.872;74.622;2023-09-19T02:40:05;17.40;52.00
52799;DHT22;38667;42.872;74.622;2023-09-19T02:42:31;17.40;51.50
52799;DHT22;38667;42.872;74.622;2023-09-19T02:44:58;17.50;51.70
52799;DHT22;38667;42.872;74.622;2023-09-19T02:47:24;17.60;51.70
52799;DHT22;38667;42.872;74.622;2023-09-19T02:49:51;17.60;51.40
52799;DHT22;38667;42.872;74.622;2023-09-19T02:52:17;17.70;51.50
52799;DHT22;38667;42.872;74.622;2023-09-19T02:54:45;17.70;51.40
52799;DHT22;38667;42.872;74.622;2023-09-19T02:57:11;17.80;51.30
52799;DHT22;38667;42.872;74.622;2023-09-19T02:59:38;17.90;50.60
52799;DHT22;38667;42.872;74.622;2023-09-19T03:02:04;17.90;51.00
52799;DHT22;38667;42.872;74.622;2023-09-19T03:04:30;17.90;51.00
52799;DHT22;38667;42.872;74.622;2023-09-19T03:06:57;18.00;51.30
52799;DHT22;38667;42.872;74.622;2023-09-19T03:09:23;18.10;51.30
52799;DHT22;38667;42.872;74.622;2023-09-19T03:11:51;18.10;51.00
52799;DHT22;38667;42.872;74.622;2023-09-19T03:14:17;18.10;50.40
52799;DHT22;38667;42.872;74.622;2023-09-19T03:16:44;18.20;50.80
52799;DHT22;38667;42.872;74.622;2023-09-19T03:19:10;18.20;50.80
52799;DHT22;38667;42.872;74.622;2023-09-19T03:21:36;18.30;50.90
52799;DHT22;38667;42.872;74.622;2023-09-19T03:24:03;18.30;51.10
52799;DHT22;38667;42.872;74.622;2023-09-19T03:26:30;18.40;50.30
52799;DHT22;38667;42.872;74.622;2023-09-19T03:28:58;18.30;50.20
52799;DHT22;38667;42.872;74.622;2023-09-19T03:31:24;18.40;50.60
52799;DHT22;38667;42.872;74.622;2023-09-19T03:33:50;18.40;49.70
52799;DHT22;38667;42.872;74.622;2023-09-19T03:36:17;18.50;49.70
52799;DHT22;38667;42.872;74.622;2023-09-19T03:38:43;18.50;49.60
52799;DHT22;38667;42.872;74.622;2023-09-19T03:41:09;18.60;48.90
52799;DHT22;38667;42.872;74.622;2023-09-19T03:43:36;18.60;48.90
52799;DHT22;38667;42.872;74.622;2023-09-19T03:46:04;18.70;49.00
52799;DHT22;38667;42.872;74.622;2023-09-19T03:48:30;18.80;48.90
52799;DHT22;38667;42.872;74.622;2023-09-19T03:50:56;18.90;48.40
52799;DHT22;38667;42.872;74.622;2023-09-19T03:53:23;18.90;48.60
52799;DHT22;38667;42.872;74.622;2023-09-19T03:55:49;19.10;48.20
52799;DHT22;38667;42.872;74.622;2023-09-19T03:58:15;19.20;48.60
52799;DHT22;38667;42.872;74.622;2023-09-19T04:00:42;19.20;47.60
52799;DHT22;38667;42.872;74.622;2023-09-19T04:03:10;19.30;47.60
52799;DHT22;38667;42.872;74.622;2023-09-19T04:05:36;19.40;47.70
52799;DHT22;38667;42.872;74.622;2023-09-19T04:08:03;19.50;47.70
52799;DHT22;38667;42.872;74.622;2023-09-19T04:10:29;19.60;48.40
52799;DHT22;38667;42.872;74.622;2023-09-19T04:12:56;19.70;48.00
52799;DHT22;38667;42.872;74.622;2023-09-19T04:15:22;19.80;47.70
52799;DHT22;38667;42.872;74.622;2023-09-19T04:17:49;19.90;47.10
52799;DHT22;38667;42.872;74.622;2023-09-19T04:20:17;20.00;47.20
52799;DHT22;38667;42.872;74.622;2023-09-19T04:22:44;20.10;47.50
52799;DHT22;38667;42.872;74.622;2023-09-19T04:25:10;20.20;47.50
52799;DHT22;38667;42.872;74.622;2023-09-19T04:27:36;20.20;46.00
52799;DHT22;38667;42.872;74.622;2023-09-19T04:30:03;20.30;46.10
52799;DHT22;38667;42.872;74.622;2023-09-19T04:32:29;20.20;46.70
52799;DHT22;38667;42.872;74.622;2023-09-19T04:34:56;20.20;47.30
52799;DHT22;38667;42.872;74.622;2023-09-19T04:37:23;20.30;46.20
52799;DHT22;38667;42.872;74.622;2023-09-19T04:39:50;20.40;46.70
52799;DHT22;38667;42.872;74.622;2023-09-19T04:42:16;20.40;46.10
52799;DHT22;38667;42.872;74.622;2023-09-19T04:44:42;20.40;46.80
52799;DHT22;38667;42.872;74.622;2023-09-19T04:47:09;20.50;46.10
52799;DHT22;38667;42.872;74.622;2023-09-19T04:49:35;20.60;45.90
52799;DHT22;38667;42.872;74.622;2023-09-19T04:52:01;20.70;46.20
52799;DHT22;38667;42.872;74.622;2023-09-19T04:54:29;20.90;45.70
52799;DHT22;38667;42.872;74.622;2023-09-19T04:56:55;21.00;45.70
52799;DHT22;38667;42.872;74.622;2023-09-19T04:59:22;21.00;46.00
52799;DHT22;38667;42.872;74.622;2023-09-19T05:01:48;21.10;45.40
52799;DHT22;38667;42.872;74.622;2023-09-19T05:04:14;21.20;46.20
52799;DHT22;38667;42.872;74.622;2023-09-19T05:06:41;21.20;44.80
52799;DHT22;38667;42.872;74.622;2023-09-19T05:09:07;21.30;45.00
52799;DHT22;38667;42.872;74.622;2023-09-19T05:11:35;21.40;44.50
52799;DHT22;38667;42.872;74.622;2023-09-19T05:14:01;21.50;45.80
52799;DHT22;38667;42.872;74.622;2023-09-19T05:16:29;21.60;46.00
52799;DHT22;38667;42.872;74.622;2023-09-19T05:18:55;21.60;45.90
52799;DHT22;38667;42.872;74.622;2023-09-19T05:21:22;21.60;44.70
52799;DHT22;38667;42.872;74.622;2023-09-19T05:23:48;21.70;43.10
52799;DHT22;38667;42.872;74.622;2023-09-19T05:26:14;21.80;42.80
52799;DHT22;38667;42.872;74.622;2023-09-19T05:28:42;21.90;42.90
52799;DHT22;38667;42.872;74.622;2023-09-19T05:31:08;22.00;43.10
52799;DHT22;38667;42.872;74.622;2023-09-19T05:33:35;22.00;43.80
52799;DHT22;38667;42.872;74.622;2023-09-19T05:36:01;22.00;44.80
52799;DHT22;38667;42.872;74.622;2023-09-19T05:38:27;22.20;44.20
52799;DHT22;38667;42.872;74.622;2023-09-19T05:40:54;22.10;44.50
52799;DHT22;38667;42.872;74.622;2023-09-19T05:43:20;22.20;44.80
52799;DHT22;38667;42.872;74.622;2023-09-19T05:45:48;22.20;45.00
52799;DHT22;38667;42.872;74.622;2023-09-19T05:48:15;22.30;45.30
52799;DHT22;38667;42.872;74.622;2023-09-19T05:50:41;22.50;45.20
52799;DHT22;38667;42.872;74.622;2023-09-19T05:53:08;22.70;44.10
52799;DHT22;38667;42.872;74.622;2023-09-19T05:55:34;22.90;40.60
52799;DHT22;38667;42.872;74.622;2023-09-19T05:58:00;22.90;42.00
52799;DHT22;38667;42.872;74.622;2023-09-19T06:00:27;22.90;41.70
52799;DHT22;38667;42.872;74.622;2023-09-19T06:02:56;23.00;42.20
52799;DHT22;38667;42.872;74.622;2023-09-19T06:05:23;23.10;43.10
52799;DHT22;38667;42.872;74.622;2023-09-19T06:07:50;23.40;42.50
52799;DHT22;38667;42.872;74.622;2023-09-19T06:10:16;23.70;42.10
52799;DHT22;38667;42.872;74.622;2023-09-19T06:12:43;23.80;41.20
52799;DHT22;38667;42.872;74.622;2023-09-19T06:15:09;23.70;40.70
52799;DHT22;38667;42.872;74.622;2023-09-19T06:17:36;23.70;39.40
52799;DHT22;38667;42.872;74.622;2023-09-19T06:20:04;23.60;40.50
52799;DHT22;38667;42.872;74.622;2023-09-19T06:22:31;23.60;40.00
52799;DHT22;38667;42.872;74.622;2023-09-19T06:24:57;23.60;40.20
52799;DHT22;38667;42.872;74.622;2023-09-19T06:27:23;23.50;39.90
52799;DHT22;38667;42.872;74.622;2023-09-19T06:29:50;23.50;39.10
52799;DHT22;38667;42.872;74.622;2023-09-19T06:32:16;23.60;39.40
52799;DHT22;38667;42.872;74.622;2023-09-19T06:34:45;23.50;39.20
52799;DHT22;38667;42.872;74.622;2023-09-19T06:37:12;23.60;39.10
52799;DHT22;38667;42.872;74.622;2023-09-19T06:39:39;23.70;39.30
52799;DHT22;38667;42.872;74.622;2023-09-19T06:42:05;23.80;40.70
52799;DHT22;38667;42.872;74.622;2023-09-19T06:44:31;24.30;40.00
52799;DHT22;38667;42.872;74.622;2023-09-19T06:46:58;25.10;37.20
52799;DHT22;38667;42.872;74.622;2023-09-19T06:49:24;26.00;34.90
52799;DHT22;38667;42.872;74.622;2023-09-19T06:51:50;26.50;35.40
52799;DHT22;38667;42.872;74.622;2023-09-19T06:54:21;26.80;36.10
52799;DHT22;38667;42.872;74.622;2023-09-19T06:56:47;26.70;36.60
52799;DHT22;38667;42.872;74.622;2023-09-19T06:59:13;26.20;36.40
52799;DHT22;38667;42.872;74.622;2023-09-19T07:01:40;25.80;34.50
52799;DHT22;38667;42.872;74.622;2023-09-19T07:04:06;25.50;34.90
52799;DHT22;38667;42.872;74.622;2023-09-19T07:06:32;25.40;36.20
52799;DHT22;38667;42.872;74.622;2023-09-19T07:08:59;25.20;36.20
52799;DHT22;38667;42.872;74.622;2023-09-19T07:11:27;25.10;36.80
52799;DHT22;38667;42.872;74.622;2023-09-19T07:13:53;25.10;36.50
52799;DHT22;38667;42.872;74.622;2023-09-19T07:16:19;25.10;36.60
52799;DHT22;38667;42.872;74.622;2023-09-19T07:18:45;25.10;35.50
52799;DHT22;38667;42.872;74.622;2023-09-19T07:21:12;25.00;35.90
52799;DHT22;38667;42.872;74.622;2023-09-19T07:23:38;24.70;36.30
52799;DHT22;38667;42.872;74.622;2023-09-19T07:26:04;24.60;36.50
52799;DHT22;38667;42.872;74.622;2023-09-19T07:28:32;24.60;37.70
52799;DHT22;38667;42.872;74.622;2023-09-19T07:31:02;24.90;37.30
52799;DHT22;38667;42.872;74.622;2023-09-19T07:33:34;24.90;35.60
52799;DHT22;38667;42.872;74.622;2023-09-19T07:36:00;24.90;36.00
52799;DHT22;38667;42.872;74.622;2023-09-19T07:38:27;24.80;36.00
52799;DHT22;38667;42.872;74.622;2023-09-19T07:40:59;24.90;36.80
52799;DHT22;38667;42.872;74.622;2023-09-19T07:43:25;25.10;35.50
52799;DHT22;38667;42.872;74.622;2023-09-19T07:45:53;25.30;36.10
52799;DHT22;38667;42.872;74.622;2023-09-19T07:48:19;25.40;36.20
52799;DHT22;38667;42.872;74.622;2023-09-19T07:50:46;25.50;36.10
52799;DHT22;38667;42.872;74.622;2023-09-19T07:53:12;25.50;35.90
52799;DHT22;38667;42.872;74.622;2023-09-19T07:55:38;25.50;36.30
52799;DHT22;38667;42.872;74.622;2023-09-19T07:58:05;25.60;35.70
52799;DHT22;38667;42.872;74.622;2023-09-19T08:00:31;25.60;34.10
52799;DHT22;38667;42.872;74.622;2023-09-19T08:02:59;25.60;35.00
52799;DHT22;38667;42.872;74.622;2023-09-19T08:05:25;26.10;34.60
52799;DHT22;38667;42.872;74.622;2023-09-19T08:07:51;26.30;35.30
52799;DHT22;38667;42.872;74.622;2023-09-19T08:10:18;26.20;36.20
52799;DHT22;38667;42.872;74.622;2023-09-19T08:12:44;26.00;35.10
52799;DHT22;38667;42.872;74.622;2023-09-19T08:15:11;25.80;35.20
52799;DHT22;38667;42.872;74.622;2023-09-19T08:17:37;25.80;35.20
52799;DHT22;38667;42.872;74.622;2023-09-19T08:20:06;25.80;36.00
52799;DHT22;38667;42.872;74.622;2023-09-19T08:22:32;25.70;36.70
52799;DHT22;38667;42.872;74.622;2023-09-19T08:24:59;25.70;36.40
52799;DHT22;38667;42.872;74.622;2023-09-19T08:27:25;25.60;35.10
52799;DHT22;38667;42.872;74.622;2023-09-19T08:29:51;25.50;35.40
52799;DHT22;38667;42.872;74.622;2023-09-19T08:32:18;25.50;35.30
52799;DHT22;38667;42.872;74.622;2023-09-19T08:34:44;25.40;35.30
52799;DHT22;38667;42.872;74.622;2023-09-19T08:37:12;25.40;34.40
52799;DHT22;38667;42.872;74.622;2023-09-19T08:39:38;25.40;35.10
52799;DHT22;38667;42.872;74.622;2023-09-19T08:42:05;25.50;35.30
52799;DHT22;38667;42.872;74.622;2023-09-19T08:44:36;25.60;35.60
52799;DHT22;38667;42.872;74.622;2023-09-19T08:47:08;25.60;35.00
52799;DHT22;38667;42.872;74.622;2023-09-19T08:49:41;25.70;34.80
52799;DHT22;38667;42.872;74.622;2023-09-19T08:52:20;25.70;36.00
52799;DHT22;38667;42.872;74.622;2023-09-19T08:54:48;25.90;36.10
52799;DHT22;38667;42.872;74.622;2023-09-19T08:57:16;26.00;36.60
52799;DHT22;38667;42.872;74.622;2023-09-19T08:59:43;26.00;34.80
52799;DHT22;38667;42.872;74.622;2023-09-19T09:02:12;26.00;35.10
52799;DHT22;38667;42.872;74.622;2023-09-19T09:04:41;26.00;35.60
52799;DHT22;38667;42.872;74.622;2023-09-19T09:07:12;26.00;34.60
52799;DHT22;38667;42.872;74.622;2023-09-19T09:09:39;26.00;35.00
52799;DHT22;38667;42.872;74.622;2023-09-19T09:12:06;26.10;35.30
52799;DHT22;38667;42.872;74.622;2023-09-19T09:14:32;26.20;35.40
52799;DHT22;38667;42.872;74.622;2023-09-19T09:16:58;26.00;34.30
52799;DHT22;38667;42.872;74.622;2023-09-19T09:19:25;25.90;34.10
52799;DHT22;38667;42.872;74.622;2023-09-19T09:21:51;25.90;34.80
52799;DHT22;38667;42.872;74.622;2023-09-19T09:24:29;25.90;34.70
52799;DHT22;38667;42.872;74.622;2023-09-19T09:26:56;25.80;34.30
52799;DHT22;38667;42.872;74.622;2023-09-19T09:29:41;25.70;34.70
52799;DHT22;38667;42.872;74.622;2023-09-19T09:32:17;25.70;34.10
52799;DHT22;38667;42.872;74.622;2023-09-19T09:34:44;25.60;33.40
52799;DHT22;38667;42.872;74.622;2023-09-19T09:37:13;25.50;33.30
52799;DHT22;38667;42.872;74.622;2023-09-19T09:39:49;25.30;34.80
52799;DHT22;38667;42.872;74.622;2023-09-19T09:42:29;25.20;36.10
52799;DHT22;38667;42.872;74.622;2023-09-19T09:45:12;25.20;35.30
52799;DHT22;38667;42.872;74.622;2023-09-19T09:47:43;25.20;35.20
52799;DHT22;38667;42.872;74.622;2023-09-19T09:50:09;25.20;35.00
52799;DHT22;38667;42.872;74.622;2023-09-19T09:52:45;25.20;34.40
52799;DHT22;38667;42.872;74.622;2023-09-19T09:55:13;25.10;35.30
52799;DHT22;38667;42.872;74.622;2023-09-19T09:57:39;25.10;35.70
52799;DHT22;38667;42.872;74.622;2023-09-19T10:00:06;24.90;38.80
52799;DHT22;38667;42.872;74.622;2023-09-19T10:02:36;24.80;37.50
52799;DHT22;38667;42.872;74.622;2023-09-19T10:05:12;24.60;37.20
52799;DHT22;38667;42.872;74.622;2023-09-19T10:07:38;24.70;36.20
52799;DHT22;38667;42.872;74.622;2023-09-19T10:10:05;24.60;37.80
52799;DHT22;38667;42.872;74.622;2023-09-19T10:12:33;24.20;39.20
52799;DHT22;38667;42.872;74.622;2023-09-19T10:15:00;23.90;38.90
52799;DHT22;38667;42.872;74.622;2023-09-19T10:17:29;23.80;39.40
52799;DHT22;38667;42.872;74.622;2023-09-19T10:19:57;23.70;39.00
52799;DHT22;38667;42.872;74.622;2023-09-19T10:22:24;23.70;39.10
52799;DHT22;38667;42.872;74.622;2023-09-19T10:24:53;23.70;39.60
52799;DHT22;38667;42.872;74.622;2023-09-19T10:27:19;23.70;39.40
52799;DHT22;38667;42.872;74.622;2023-09-19T10:29:49;23.60;38.60
52799;DHT22;38667;42.872;74.622;2023-09-19T10:32:16;23.60;40.00
52799;DHT22;38667;42.872;74.622;2023-09-19T10:34:43;23.60;39.10
52799;DHT22;38667;42.872;74.622;2023-09-19T10:37:12;23.70;39.30
52799;DHT22;38667;42.872;74.622;2023-09-19T10:39:40;23.70;39.90
52799;DHT22;38667;42.872;74.622;2023-09-19T10:42:07;23.70;39.70
52799;DHT22;38667;42.872;74.622;2023-09-19T10:44:33;23.80;39.20
52799;DHT22;38667;42.872;74.622;2023-09-19T10:47:04;23.70;38.50
52799;DHT22;38667;42.872;74.622;2023-09-19T10:49:31;23.60;39.60
52799;DHT22;38667;42.872;74.622;2023-09-19T10:51:59;23.70;39.10
52799;DHT22;38667;42.872;74.622;2023-09-19T10:54:30;24.20;38.50
52799;DHT22;38667;42.872;74.622;2023-09-19T10:56:57;24.40;37.80
52799;DHT22;38667;42.872;74.622;2023-09-19T10:59:24;24.40;37.70
52799;DHT22;38667;42.872;74.622;2023-09-19T11:01:52;24.30;37.90
52799;DHT22;38667;42.872;74.622;2023-09-19T11:04:24;24.20;37.70
52799;DHT22;38667;42.872;74.622;2023-09-19T11:07:03;24.20;37.90
52799;DHT22;38667;42.872;74.622;2023-09-19T11:09:46;24.00;38.30
52799;DHT22;38667;42.872;74.622;2023-09-19T11:14:54;23.60;39.00
52799;DHT22;38667;42.872;74.622;2023-09-19T11:17:41;23.30;39.60
52799;DHT22;38667;42.872;74.622;2023-09-19T11:20:25;23.20;39.90
52799;DHT22;38667;42.872;74.622;2023-09-19T11:23:19;23.20;39.20
52799;DHT22;38667;42.872;74.622;2023-09-19T11:25:45;23.30;39.20
52799;DHT22;38667;42.872;74.622;2023-09-19T11:28:33;23.20;39.30
52799;DHT22;38667;42.872;74.622;2023-09-19T11:30:59;23.20;39.30
52799;DHT22;38667;42.872;74.622;2023-09-19T11:33:45;23.10;39.80
52799;DHT22;38667;42.872;74.622;2023-09-19T11:36:14;23.10;39.40
52799;DHT22;38667;42.872;74.622;2023-09-19T11:38:59;23.10;39.90
52799;DHT22;38667;42.872;74.622;2023-09-19T11:41:38;23.10;39.50
52799;DHT22;38667;42.872;74.622;2023-09-19T11:44:32;23.40;38.90
52799;DHT22;38667;42.872;74.622;2023-09-19T11:46:59;23.80;38.00
52799;DHT22;38667;42.872;74.622;2023-09-19T11:49:28;23.80;38.30
52799;DHT22;38667;42.872;74.622;2023-09-19T11:51:56;23.50;38.60
52799;DHT22;38667;42.872;74.622;2023-09-19T11:54:22;23.60;38.30
52799;DHT22;38667;42.872;74.622;2023-09-19T11:56:49;23.50;39.00
52799;DHT22;38667;42.872;74.622;2023-09-19T11:59:20;23.30;39.30
52799;DHT22;38667;42.872;74.622;2023-09-19T12:01:51;23.40;39.40
52799;DHT22;38667;42.872;74.622;2023-09-19T12:04:19;23.40;39.70
52799;DHT22;38667;42.872;74.622;2023-09-19T12:06:58;23.40;40.30
52799;DHT22;38667;42.872;74.622;2023-09-19T12:09:25;23.50;39.70
52799;DHT22;38667;42.872;74.622;2023-09-19T12:11:51;23.60;39.30
52799;DHT22;38667;42.872;74.622;2023-09-19T12:14:27;23.60;39.50
52799;DHT22;38667;42.872;74.622;2023-09-19T12:16:56;23.70;39.30
52799;DHT22;38667;42.872;74.622;2023-09-19T12:19:23;23.70;39.20
52799;DHT22;38667;42.872;74.622;2023-09-19T12:21:58;23.70;39.20
52799;DHT22;38667;42.872;74.622;2023-09-19T12:24:25;23.70;39.10
52799;DHT22;38667;42.872;74.622;2023-09-19T12:26:52;23.60;39.60
52799;DHT22;38667;42.872;74.622;2023-09-19T12:29:19;23.50;39.60
52799;DHT22;38667;42.872;74.622;2023-09-19T12:31:52;23.60;39.60
52799;DHT22;38667;42.872;74.622;2023-09-19T12:34:23;23.60;39.50
52799;DHT22;38667;42.872;74.622;2023-09-19T12:37:01;23.60;39.80
52799;DHT22;38667;42.872;74.622;2023-09-19T12:39:30;23.60;40.60
52799;DHT22;38667;42.872;74.622;2023-09-19T12:41:57;23.70;39.20
52799;DHT22;38667;42.872;74.622;2023-09-19T12:44:23;23.70;39.60
52799;DHT22;38667;42.872;74.622;2023-09-19T12:46:50;23.70;39.60
52799;DHT22;38667;42.872;74.622;2023-09-19T12:49:16;23.60;39.80
52799;DHT22;38667;42.872;74.622;2023-09-19T12:51:43;23.70;39.00
52799;DHT22;38667;42.872;74.622;2023-09-19T12:54:10;23.70;39.00
52799;DHT22;38667;42.872;74.622;2023-09-19T12:56:42;23.80;38.60
52799;DHT22;38667;42.872;74.622;2023-09-19T12:59:08;23.80;38.70
52799;DHT22;38667;42.872;74.622;2023-09-19T13:01:34;23.80;38.60
52799;DHT22;38667;42.872;74.622;2023-09-19T13:04:14;23.70;38.80
52799;DHT22;38667;42.872;74.622;2023-09-19T13:06:40;23.70;38.80
52799;DHT22;38667;42.872;74.622;2023-09-19T13:09:10;23.70;39.10
52799;DHT22;38667;42.872;74.622;2023-09-19T13:11:37;23.70;38.90
52799;DHT22;38667;42.872;74.622;2023-09-19T13:14:16;23.60;39.20
52799;DHT22;38667;42.872;74.622;2023-09-19T13:17:00;23.60;39.30
52799;DHT22;38667;42.872;74.622;2023-09-19T13:19:40;23.50;39.80
52799;DHT22;38667;42.872;74.622;2023-09-19T13:22:37;23.50;39.30
52799;DHT22;38667;42.872;74.622;2023-09-19T13:25:04;23.40;39.50
52799;DHT22;38667;42.872;74.622;2023-09-19T13:27:30;23.40;40.70
52799;DHT22;38667;42.872;74.622;2023-09-19T13:29:58;23.30;42.20
52799;DHT22;38667;42.872;74.622;2023-09-19T13:32:26;23.20;42.40
52799;DHT22;38667;42.872;74.622;2023-09-19T13:34:52;23.10;42.40
52799;DHT22;38667;42.872;74.622;2023-09-19T13:37:18;23.00;42.80
52799;DHT22;38667;42.872;74.622;2023-09-19T13:39:44;23.00;44.60
52799;DHT22;38667;42.872;74.622;2023-09-19T13:42:11;22.90;43.10
52799;DHT22;38667;42.872;74.622;2023-09-19T13:44:37;22.90;42.30
52799;DHT22;38667;42.872;74.622;2023-09-19T13:47:05;22.90;41.90
52799;DHT22;38667;42.872;74.622;2023-09-19T13:49:31;22.90;41.80
52799;DHT22;38667;42.872;74.622;2023-09-19T13:51:58;22.90;42.70
52799;DHT22;38667;42.872;74.622;2023-09-19T13:54:24;22.90;44.20
52799;DHT22;38667;42.872;74.622;2023-09-19T13:56:50;22.80;44.30
52799;DHT22;38667;42.872;74.622;2023-09-19T13:59:17;22.80;43.70
52799;DHT22;38667;42.872;74.622;2023-09-19T14:01:43;22.70;43.50
52799;DHT22;38667;42.872;74.622;2023-09-19T14:04:11;22.70;43.50
52799;DHT22;38667;42.872;74.622;2023-09-19T14:06:37;22.70;43.20
52799;DHT22;38667;42.872;74.622;2023-09-19T14:09:04;22.60;43.50
52799;DHT22;38667;42.872;74.622;2023-09-19T14:11:30;22.60;43.50
52799;DHT22;38667;42.872;74.622;2023-09-19T14:13:56;22.50;44.90
52799;DHT22;38667;42.872;74.622;2023-09-19T14:16:23;22.50;45.50
52799;DHT22;38667;42.872;74.622;2023-09-19T14:18:49;22.40;46.20
52799;DHT22;38667;42.872;74.622;2023-09-19T14:21:17;22.30;45.40
52799;DHT22;38667;42.872;74.622;2023-09-19T14:23:43;22.20;45.80
52799;DHT22;38667;42.872;74.622;2023-09-19T14:26:09;22.20;45.50
52799;DHT22;38667;42.872;74.622;2023-09-19T14:28:36;22.20;46.70
52799;DHT22;38667;42.872;74.622;2023-09-19T14:31:09;22.10;46.70
52799;DHT22;38667;42.872;74.622;2023-09-19T14:33:36;22.10;46.60
52799;DHT22;38667;42.872;74.622;2023-09-19T14:36:06;22.10;46.50
52799;DHT22;38667;42.872;74.622;2023-09-19T14:38:34;22.00;46.90
52799;DHT22;38667;42.872;74.622;2023-09-19T14:41:01;22.00;48.20
52799;DHT22;38667;42.872;74.622;2023-09-19T14:43:28;22.00;49.40
52799;DHT22;38667;42.872;74.622;2023-09-19T14:45:54;21.90;49.10
52799;DHT22;38667;42.872;74.622;2023-09-19T14:48:25;21.90;49.10
52799;DHT22;38667;42.872;74.622;2023-09-19T14:50:52;21.90;49.60
52799;DHT22;38667;42.872;74.622;2023-09-19T14:53:18;21.80;49.60
52799;DHT22;38667;42.872;74.622;2023-09-19T14:55:46;21.80;49.00
52799;DHT22;38667;42.872;74.622;2023-09-19T14:58:12;21.70;49.20
52799;DHT22;38667;42.872;74.622;2023-09-19T15:00:39;21.70;51.40
52799;DHT22;38667;42.872;74.622;2023-09-19T15:03:05;21.70;49.40
52799;DHT22;38667;42.872;74.622;2023-09-19T15:05:31;21.80;47.30
52799;DHT22;38667;42.872;74.622;2023-09-19T15:07:58;21.90;45.10
52799;DHT22;38667;42.872;74.622;2023-09-19T15:10:24;22.10;45.10
52799;DHT22;38667;42.872;74.622;2023-09-19T15:12:52;22.10;44.80
52799;DHT22;38667;42.872;74.622;2023-09-19T15:15:18;22.10;45.80
52799;DHT22;38667;42.872;74.622;2023-09-19T15:17:45;22.10;46.60
52799;DHT22;38667;42.872;74.622;2023-09-19T15:20:11;22.00;47.60
52799;DHT22;38667;42.872;74.622;2023-09-19T15:22:38;21.90;48.60
52799;DHT22;38667;42.872;74.622;2023-09-19T15:25:04;21.90;49.80